Time;durP1;ratioP1;P1;durP2;ratioP2;P2;SDS_P1;SDS_P2;PMS_P1;PMS_P2;Temp;Humidity;BMP_temperature;BMP_pressure;BME280_temperature;BME280_humidity;BME280_pressure;Samples;Min_cycle;Max_cycle;Signal;HPM_P1;HPM_P2
2022/05/14 00:00:17;;;;;;;7.45;2.67;;;21.00;78.40;;;;;;4900696;29;20126;-63
2022/05/14 00:02:43;;;;;;;7.20;2.53;;;21.10;78.70;;;;;;4919648;29;20111;-63
2022/05/14 00:05:09;;;;;;;6.97;2.60;;;21.10;75.80;;;;;;4918543;29;20092;-62
2022/05/14 00:07:36;;;;;;;8.90;2.55;;;20.90;78.60;;;;;;4929270;29;20043;-62
2022/05/14 00:10:02;;;;;;;5.47;2.33;;;21.10;78.80;;;;;;4900728;29;20516;-62
2022/05/14 00:15:13;;;;;;;8.48;3.08;;;21.10;73.90;;;;;;4917615;29;20055;-62
2022/05/14 00:17:38;;;;;;;7.70;2.63;;;21.10;78.70;;;;;;4917462;29;20048;-62
2022/05/14 00:20:05;;;;;;;5.68;2.30;;;20.70;78.80;;;;;;4916967;29;20405;-62
2022/05/14 00:22:30;;;;;;;5.95;2.30;;;21.10;78.60;;;;;;4934319;29;20375;-62
2022/05/14 00:24:56;;;;;;;8.55;3.00;;;20.90;78.80;;;;;;4936663;29;20114;-62
2022/05/14 00:27:22;;;;;;;7.70;2.50;;;20.90;78.60;;;;;;4919357;29;20500;-62
2022/05/14 00:29:48;;;;;;;8.07;2.55;;;21.10;78.70;;;;;;4918889;29;20119;-62
2022/05/14 00:32:14;;;;;;;6.15;2.60;;;21.10;79.00;;;;;;4916488;29;20044;-63
2022/05/14 00:34:39;;;;;;;8.20;2.63;;;20.90;79.20;;;;;;4916041;29;20047;-62
2022/05/14 00:37:05;;;;;;;6.18;2.55;;;;;;;;;;4900145;29;20044;-63
2022/05/14 00:39:31;;;;;;;8.35;3.17;;;21.00;78.90;;;;;;4925855;29;20099;-62
2022/05/14 00:41:57;;;;;;;6.90;2.38;;;21.00;78.80;;;;;;4917080;29;20056;-62
2022/05/14 00:44:23;;;;;;;4.70;2.03;;;21.00;79.00;;;;;;4899989;29;20107;-62
2022/05/14 00:47:00;;;;;;;8.10;2.60;;;21.00;78.90;;;;;;4915824;29;20422;-61
2022/05/14 00:49:27;;;;;;;7.50;2.97;;;20.90;78.70;;;;;;4916017;29;20052;-63
2022/05/14 00:51:53;;;;;;;7.10;2.50;;;20.80;79.00;;;;;;4902341;29;20055;-63
2022/05/14 00:54:24;;;;;;;9.52;2.67;;;20.90;78.80;;;;;;4900863;29;20088;-62
2022/05/14 00:56:57;;;;;;;7.20;2.85;;;20.90;78.90;;;;;;4919547;29;20131;-62
2022/05/14 00:59:24;;;;;;;7.63;2.50;;;21.00;78.90;;;;;;4918410;29;20397;-62
2022/05/14 01:01:50;;;;;;;7.50;2.75;;;21.10;79.00;;;;;;4917910;29;20059;-64
2022/05/14 01:04:16;;;;;;;6.75;2.42;;;20.90;79.10;;;;;;4900139;29;20048;-63
2022/05/14 01:06:49;;;;;;;9.10;2.60;;;20.80;79.00;;;;;;4917262;29;20056;-62
2022/05/14 01:09:15;;;;;;;7.07;3.33;;;20.90;79.00;;;;;;4916176;29;20109;-62
2022/05/14 01:11:41;;;;;;;8.15;2.70;;;;;;;;;;4918988;29;20077;-62
2022/05/14 01:14:07;;;;;;;7.03;2.90;;;20.70;74.10;;;;;;4936114;29;20094;-62
2022/05/14 01:16:32;;;;;;;5.93;2.50;;;21.00;79.00;;;;;;4936148;29;20071;-63
2022/05/14 01:18:59;;;;;;;9.40;2.80;;;20.80;79.20;;;;;;4936178;29;20044;-62
2022/05/14 01:21:49;;;;;;;9.60;2.65;;;21.00;79.10;;;;;;4915072;29;20119;-65
2022/05/14 01:27:17;;;;;;;9.85;2.80;;;20.80;79.00;;;;;;4895969;29;20057;-63
2022/05/14 01:29:43;;;;;;;11.00;3.25;;;20.80;78.40;;;;;;4892510;29;20052;-62
2022/05/14 01:32:08;;;;;;;5.82;2.78;;;20.80;79.20;;;;;;4882412;29;20518;-62
2022/05/14 01:34:35;;;;;;;6.70;2.50;;;20.70;79.20;;;;;;4852614;29;20122;-62
2022/05/14 01:37:01;;;;;;;10.20;2.47;;;20.90;78.90;;;;;;4896587;29;20132;-62
2022/05/14 01:39:27;;;;;;;7.30;2.90;;;20.60;78.90;;;;;;4883424;29;20056;-62
2022/05/14 01:41:53;;;;;;;10.55;2.85;;;21.10;79.20;;;;;;4883542;29;20401;-63
2022/05/14 01:44:19;;;;;;;8.25;3.45;;;20.90;76.20;;;;;;4914004;29;20052;-63
2022/05/14 01:46:45;;;;;;;8.60;3.00;;;20.80;76.00;;;;;;4883015;29;20059;-62
2022/05/14 01:49:10;;;;;;;9.55;2.80;;;20.90;79.20;;;;;;4895873;29;20057;-62
2022/05/14 01:51:36;;;;;;;9.38;2.50;;;20.80;76.10;;;;;;4879194;29;20063;-63
2022/05/14 01:54:02;;;;;;;6.55;2.70;;;20.80;79.00;;;;;;4880049;29;20092;-62
2022/05/14 01:56:27;;;;;;;8.60;2.72;;;20.70;79.20;;;;;;4894133;29;20522;-63
2022/05/14 01:58:53;;;;;;;7.72;2.63;;;20.60;76.10;;;;;;4910423;29;20059;-62
2022/05/14 02:01:24;;;;;;;6.75;2.63;;;20.50;78.90;;;;;;4900710;29;20055;-62
2022/05/14 02:03:54;;;;;;;7.35;2.65;;;20.70;74.90;;;;;;4884973;29;20060;-62
2022/05/14 02:06:21;;;;;;;8.77;3.20;;;20.70;79.10;;;;;;4911910;29;20052;-62
2022/05/14 02:08:46;;;;;;;7.85;2.85;;;20.60;79.00;;;;;;4929321;29;20051;-63
2022/05/14 02:11:13;;;;;;;8.13;2.88;;;20.60;76.20;;;;;;4913443;29;20036;-62
2022/05/14 02:13:39;;;;;;;8.65;2.97;;;20.80;79.60;;;;;;4919574;29;20048;-63
2022/05/14 02:16:05;;;;;;;7.20;2.75;;;20.70;76.40;;;;;;4908334;29;20186;-62
2022/05/14 02:18:31;;;;;;;8.57;2.80;;;;;;;;;;4929663;29;20047;-64
2022/05/14 02:20:57;;;;;;;7.07;2.97;;;20.70;79.50;;;;;;4921247;29;20068;-62
2022/05/14 02:23:22;;;;;;;8.57;2.78;;;20.60;79.30;;;;;;4918513;29;20059;-62
2022/05/14 02:25:48;;;;;;;11.52;3.88;;;20.50;79.20;;;;;;4901844;29;20375;-63
2022/05/14 02:28:14;;;;;;;7.03;2.63;;;;;;;;;;4902785;29;20056;-65
2022/05/14 02:30:40;;;;;;;8.05;3.00;;;20.70;79.30;;;;;;4922030;29;20044;-69
2022/05/14 02:33:06;;;;;;;7.10;2.75;;;20.70;76.40;;;;;;4903630;29;20052;-70
2022/05/14 02:35:32;;;;;;;8.75;3.00;;;20.80;79.90;;;;;;4902769;29;20099;-70
2022/05/14 02:37:58;;;;;;;6.95;2.72;;;20.70;79.60;;;;;;4904866;29;20099;-70
2022/05/14 02:40:23;;;;;;;12.15;3.30;;;20.70;79.60;;;;;;4924203;29;20052;-70
2022/05/14 02:42:49;;;;;;;7.55;3.17;;;20.60;79.50;;;;;;4912605;29;20052;-70
2022/05/14 02:45:15;;;;;;;8.27;3.10;;;;;;;;;;4938442;29;20047;-70
2022/05/14 02:47:43;;;;;;;9.75;2.88;;;;;;;;;;4925184;29;20052;-70
2022/05/14 02:50:09;;;;;;;8.48;3.28;;;;;;;;;;4916685;29;20052;-65
2022/05/14 02:52:35;;;;;;;8.25;3.38;;;;;;;;;;4933350;29;20414;-70
2022/05/14 02:55:01;;;;;;;6.13;3.00;;;;;;;;;;4924572;29;20078;-70
2022/05/14 02:57:27;;;;;;;7.63;3.00;;;20.70;79.80;;;;;;4938449;29;20048;-70
2022/05/14 02:59:53;;;;;;;11.93;4.15;;;20.80;77.00;;;;;;4936638;29;20406;-70
2022/05/14 03:02:19;;;;;;;10.23;2.97;;;;;;;;;;4920298;29;20071;-69
2022/05/14 03:04:47;;;;;;;8.77;2.88;;;;;;;;;;4901892;29;20055;-69
2022/05/14 03:07:15;;;;;;;14.13;3.38;;;;;;;;;;4922339;29;20062;-68
2022/05/14 03:09:41;;;;;;;11.68;3.08;;;;;;;;;;4921129;29;20083;-69
2022/05/14 03:12:08;;;;;;;8.57;3.00;;;20.50;74.90;;;;;;4919290;29;20072;-62
2022/05/14 03:14:34;;;;;;;10.02;3.20;;;;;;;;;;4915792;29;20075;-64
2022/05/14 03:17:00;;;;;;;10.75;3.45;;;20.60;74.90;;;;;;4917513;29;20483;-63
2022/05/14 03:19:26;;;;;;;9.45;3.55;;;;;;;;;;4931270;29;20058;-63
2022/05/14 03:21:52;;;;;;;11.18;3.75;;;20.60;79.70;;;;;;4932981;29;20083;-63
2022/05/14 03:24:18;;;;;;;10.35;4.18;;;20.60;79.80;;;;;;4917253;29;20076;-62
2022/05/14 03:26:45;;;;;;;9.55;3.50;;;;;;;;;;4916480;29;20044;-67
2022/05/14 03:29:10;;;;;;;9.50;3.05;;;20.50;75.00;;;;;;4921502;29;20048;-63
2022/05/14 03:31:36;;;;;;;9.55;3.65;;;20.50;76.70;;;;;;4923315;29;20063;-62
2022/05/14 03:34:03;;;;;;;10.88;3.28;;;20.50;80.00;;;;;;4919215;29;20047;-62
2022/05/14 03:36:29;;;;;;;12.43;3.45;;;20.40;80.10;;;;;;4916900;29;20119;-63
2022/05/14 03:38:55;;;;;;;10.40;3.08;;;;;;;;;;4918509;29;20079;-62
2022/05/14 03:41:21;;;;;;;11.38;3.38;;;20.40;75.70;;;;;;4935978;29;20046;-62
2022/05/14 03:43:48;;;;;;;8.52;3.25;;;20.50;79.90;;;;;;4929596;29;20139;-63
2022/05/14 03:46:15;;;;;;;11.60;3.72;;;20.40;79.90;;;;;;4901584;29;20056;-63
2022/05/14 03:48:41;;;;;;;9.68;3.67;;;20.30;77.10;;;;;;4917113;29;20087;-62
2022/05/14 03:51:06;;;;;;;10.80;3.72;;;20.40;76.70;;;;;;4912298;29;20047;-63
2022/05/14 03:53:32;;;;;;;10.35;3.72;;;;;;;;;;4933638;29;20052;-63
2022/05/14 03:55:58;;;;;;;13.15;3.83;;;20.40;80.10;;;;;;4929094;29;20044;-62
2022/05/14 03:58:24;;;;;;;9.02;3.33;;;;;;;;;;4934440;29;20048;-62
2022/05/14 04:00:50;;;;;;;12.82;3.72;;;;;;;;;;4915266;29;20117;-66
2022/05/14 04:03:16;;;;;;;15.43;3.75;;;20.50;80.10;;;;;;4916639;29;20055;-62
2022/05/14 04:05:42;;;;;;;10.52;2.83;;;20.40;77.10;;;;;;4925379;29;20051;-62
2022/05/14 04:08:08;;;;;;;10.73;3.50;;;20.30;77.00;;;;;;4919196;29;20040;-62
2022/05/14 04:10:34;;;;;;;9.43;3.25;;;20.30;80.20;;;;;;4900756;29;20059;-62
2022/05/14 04:12:59;;;;;;;10.63;3.55;;;20.40;77.80;;;;;;4909190;29;20094;-62
2022/05/14 04:15:25;;;;;;;9.48;3.28;;;20.30;80.10;;;;;;4918274;29;20055;-62
2022/05/14 04:17:52;;;;;;;9.68;3.50;;;20.40;77.10;;;;;;4936846;29;20043;-63
2022/05/14 04:20:18;;;;;;;12.77;3.92;;;;;;;;;;4901216;29;20395;-63
2022/05/14 04:22:44;;;;;;;9.82;3.42;;;20.40;80.20;;;;;;4931238;29;20043;-63
2022/05/14 04:25:11;;;;;;;12.55;3.70;;;20.30;77.10;;;;;;4902031;29;20410;-62
2022/05/14 04:27:37;;;;;;;11.48;3.47;;;20.60;80.20;;;;;;4901345;29;20066;-63
2022/05/14 04:30:03;;;;;;;8.93;3.92;;;20.70;77.70;;;;;;4900887;29;20091;-62
2022/05/14 04:32:29;;;;;;;11.48;3.20;;;20.50;80.10;;;;;;4917337;29;20104;-69
2022/05/14 04:34:56;;;;;;;9.30;3.17;;;20.60;80.20;;;;;;4917437;29;20056;-70
2022/05/14 04:37:21;;;;;;;13.07;3.42;;;20.70;80.30;;;;;;4903514;29;20082;-62
2022/05/14 04:39:49;;;;;;;11.98;3.70;;;20.60;80.10;;;;;;4927732;29;20079;-62
2022/05/14 04:42:15;;;;;;;12.48;3.70;;;20.60;80.10;;;;;;4919403;29;20458;-63
2022/05/14 04:44:40;;;;;;;10.27;3.83;;;20.40;77.10;;;;;;4892221;29;20055;-62
2022/05/14 04:47:06;;;;;;;9.52;3.72;;;20.70;80.00;;;;;;4915347;29;20061;-63
2022/05/14 04:49:32;;;;;;;10.00;3.25;;;20.60;76.70;;;;;;4900492;29;20062;-62
2022/05/14 04:51:58;;;;;;;9.98;4.25;;;;;;;;;;4915901;29;20502;-65
2022/05/14 04:54:24;;;;;;;11.55;4.20;;;20.60;80.00;;;;;;4924361;29;20469;-63
2022/05/14 04:56:50;;;;;;;15.15;3.95;;;21.00;77.00;;;;;;4915889;29;20140;-62
2022/05/14 04:59:15;;;;;;;12.73;4.18;;;20.90;80.00;;;;;;4924331;29;20059;-63
2022/05/14 05:03:16;;;;;;;8.40;3.60;;;;;;;;;;4920905;29;20040;-63
2022/05/14 05:04:28;;;;;;;11.50;3.75;;;21.20;79.70;;;;;;4917364;29;20052;-63
2022/05/14 05:06:54;;;;;;;11.10;3.50;;;21.20;79.60;;;;;;4913710;29;20119;-68
2022/05/14 05:09:20;;;;;;;10.98;3.83;;;;;;;;;;4925217;29;20036;-69
2022/05/14 05:11:45;;;;;;;9.57;3.10;;;21.20;74.60;;;;;;4917974;29;20052;-69
2022/05/14 05:14:11;;;;;;;11.45;3.55;;;21.60;79.10;;;;;;4920638;29;20106;-63
2022/05/14 05:16:37;;;;;;;13.50;3.92;;;21.50;78.80;;;;;;4932317;29;20048;-63
2022/05/14 05:19:02;;;;;;;10.15;3.63;;;21.50;78.50;;;;;;4930901;29;20051;-63
2022/05/14 05:21:28;;;;;;;9.63;3.20;;;21.60;78.40;;;;;;4916436;29;20052;-62
2022/05/14 05:23:54;;;;;;;9.30;3.80;;;21.70;75.70;;;;;;4926188;29;20507;-63
2022/05/14 05:26:20;;;;;;;13.15;3.75;;;22.00;78.20;;;;;;4918914;29;20084;-63
2022/05/14 05:28:46;;;;;;;12.05;3.58;;;22.00;78.20;;;;;;4934697;29;20122;-63
2022/05/14 05:31:11;;;;;;;10.32;3.30;;;22.10;77.60;;;;;;4918231;29;20044;-62
2022/05/14 05:33:37;;;;;;;12.85;4.22;;;22.20;77.70;;;;;;4929463;29;20044;-62
2022/05/14 05:36:06;;;;;;;12.07;3.90;;;22.40;77.60;;;;;;4937591;29;20051;-63
2022/05/14 05:38:31;;;;;;;11.90;3.63;;;22.50;75.00;;;;;;4904942;29;20051;-64
2022/05/14 05:40:58;;;;;;;10.75;3.53;;;22.50;77.80;;;;;;4907151;29;20383;-69
2022/05/14 05:43:23;;;;;;;13.57;3.83;;;22.50;77.50;;;;;;4920104;29;20052;-68
2022/05/14 05:45:50;;;;;;;11.15;3.97;;;22.80;74.70;;;;;;4939978;29;20058;-65
2022/05/14 05:48:16;;;;;;;10.95;3.83;;;22.40;77.80;;;;;;4936258;29;20055;-64
2022/05/14 05:50:44;;;;;;;9.18;3.05;;;22.60;76.60;;;;;;4924513;29;20130;-68
2022/05/14 05:53:10;;;;;;;12.57;3.50;;;22.70;74.70;;;;;;4929400;29;20417;-68
2022/05/14 05:58:20;;;;;;;12.82;3.58;;;22.90;77.30;;;;;;4942340;29;20505;-64
2022/05/14 06:00:47;;;;;;;11.38;3.78;;;22.80;74.30;;;;;;4920644;29;20148;-65
2022/05/14 06:03:12;;;;;;;7.65;3.08;;;23.00;77.10;;;;;;4903776;29;20078;-65
2022/05/14 06:05:39;;;;;;;11.40;3.55;;;23.00;74.20;;;;;;4921185;29;20079;-64
2022/05/14 06:08:09;;;;;;;9.82;3.40;;;23.10;72.40;;;;;;4934473;29;20477;-64
2022/05/14 06:10:35;;;;;;;10.50;3.35;;;23.10;74.10;;;;;;4922540;29;20055;-64
2022/05/14 06:13:01;;;;;;;11.20;3.40;;;23.10;74.20;;;;;;4927748;29;20050;-64
2022/05/14 06:15:27;;;;;;;11.38;3.30;;;23.40;77.00;;;;;;4945489;29;20401;-64
2022/05/14 06:17:52;;;;;;;11.35;3.28;;;23.40;74.20;;;;;;4945605;28;20115;-65
2022/05/14 06:20:18;;;;;;;11.40;3.67;;;23.30;74.00;;;;;;4905905;29;20059;-65
2022/05/14 06:22:44;;;;;;;12.23;3.88;;;23.60;76.60;;;;;;4906085;29;20043;-64
2022/05/14 06:25:10;;;;;;;9.25;3.95;;;23.60;73.90;;;;;;4921933;29;20062;-64
2022/05/14 06:27:36;;;;;;;9.65;3.60;;;23.50;73.60;;;;;;4936533;29;20401;-65
2022/05/14 06:30:02;;;;;;;9.45;3.58;;;23.70;73.70;;;;;;4940856;29;20043;-64
2022/05/14 06:32:28;;;;;;;11.35;3.58;;;23.60;73.50;;;;;;4924965;29;20420;-64
2022/05/14 06:34:54;;;;;;;12.02;3.40;;;23.80;73.60;;;;;;4911663;29;20051;-65
2022/05/14 06:37:20;;;;;;;10.18;3.63;;;23.60;73.00;;;;;;4929008;29;20035;-65
2022/05/14 06:39:46;;;;;;;12.00;3.80;;;23.90;75.90;;;;;;4955658;29;20039;-65
2022/05/14 06:42:13;;;;;;;11.63;3.65;;;23.70;72.80;;;;;;4940364;28;20405;-69
2022/05/14 06:44:38;;;;;;;10.82;3.58;;;23.90;76.00;;;;;;4923954;29;20090;-69
2022/05/14 06:47:04;;;;;;;12.25;3.70;;;23.90;73.00;;;;;;4878932;29;20498;-67
2022/05/14 06:49:30;;;;;;;10.65;3.50;;;23.90;73.00;;;;;;4939011;29;20118;-64
2022/05/14 06:51:57;;;;;;;10.32;3.80;;;24.00;73.10;;;;;;4951258;29;20417;-65
2022/05/14 06:54:23;;;;;;;9.02;3.58;;;24.00;73.30;;;;;;4919921;29;20051;-65
2022/05/14 06:56:48;;;;;;;10.57;3.42;;;24.00;73.00;;;;;;4917865;29;20553;-65
2022/05/14 06:59:14;;;;;;;10.55;3.03;;;23.60;73.00;;;;;;4920979;29;20402;-66
2022/05/14 07:01:42;;;;;;;10.50;3.47;;;24.00;73.00;;;;;;4920810;29;20083;-65
2022/05/14 07:06:53;;;;;;;9.82;3.50;;;24.10;73.30;;;;;;4917662;29;20054;-64
2022/05/14 07:09:22;;;;;;;11.57;3.20;;;23.80;75.90;;;;;;4938174;29;20043;-68
2022/05/14 07:11:50;;;;;;;12.68;3.80;;;24.00;73.40;;;;;;4905286;29;20117;-64
2022/05/14 07:14:16;;;;;;;8.50;3.45;;;24.00;73.40;;;;;;4921615;28;20055;-68
2022/05/14 07:16:43;;;;;;;9.73;3.28;;;24.00;73.20;;;;;;4910989;29;20039;-68
2022/05/14 07:19:08;;;;;;;8.10;3.22;;;24.40;73.30;;;;;;4939788;29;20447;-68
2022/05/14 07:21:36;;;;;;;9.85;3.67;;;24.00;72.80;;;;;;4939575;29;20126;-69
2022/05/14 07:24:06;;;;;;;11.07;3.70;;;24.20;73.30;;;;;;4908275;29;20063;-69
2022/05/14 07:26:34;;;;;;;10.93;3.50;;;24.20;71.70;;;;;;4947004;29;20050;-63
2022/05/14 07:29:00;;;;;;;14.10;3.65;;;24.20;73.20;;;;;;4936186;29;20125;-64
2022/05/14 07:31:26;;;;;;;12.45;3.88;;;24.40;73.40;;;;;;4943610;28;20054;-63
2022/05/14 07:33:52;;;;;;;10.82;4.13;;;24.10;72.80;;;;;;4920562;29;20406;-62
2022/05/14 07:36:19;;;;;;;11.50;4.80;;;24.30;72.80;;;;;;4939063;29;20047;-62
2022/05/14 07:38:48;;;;;;;10.25;4.07;;;24.30;72.90;;;;;;4929771;29;20065;-63
2022/05/14 07:41:13;;;;;;;11.45;4.20;;;24.50;71.50;;;;;;4923803;29;20080;-62
2022/05/14 07:43:39;;;;;;;11.55;4.20;;;24.20;72.40;;;;;;4911949;29;20126;-63
2022/05/14 07:46:07;;;;;;;15.93;4.63;;;24.40;75.50;;;;;;4919466;29;20490;-63
2022/05/14 07:48:38;;;;;;;12.27;4.88;;;24.60;72.80;;;;;;4920356;29;20398;-63
2022/05/14 07:51:04;;;;;;;11.48;4.65;;;24.70;72.90;;;;;;4939179;29;20055;-63
2022/05/14 07:53:31;;;;;;;13.77;4.53;;;24.60;72.50;;;;;;4896087;29;20094;-62
2022/05/14 07:55:57;;;;;;;9.85;3.33;;;24.40;72.20;;;;;;4920219;29;20465;-62
2022/05/14 07:58:26;;;;;;;11.85;4.38;;;24.60;72.50;;;;;;4881652;29;20062;-62
2022/05/14 08:00:52;;;;;;;14.38;4.15;;;24.60;71.10;;;;;;4933128;29;20054;-72
2022/05/14 08:03:18;;;;;;;13.02;4.03;;;24.50;71.90;;;;;;4930656;29;20134;-73
2022/05/14 08:05:44;;;;;;;11.93;4.47;;;24.70;72.10;;;;;;4904264;29;20103;-72
2022/05/14 08:08:10;;;;;;;14.77;4.20;;;24.50;71.90;;;;;;4907616;29;20047;-72
2022/05/14 08:10:36;;;;;;;11.85;3.78;;;24.90;72.20;;;;;;4907230;29;20129;-73
2022/05/14 08:13:02;;;;;;;15.77;3.95;;;24.80;72.20;;;;;;4953437;29;20070;-72
2022/05/14 08:15:28;;;;;;;11.05;3.17;;;25.00;72.10;;;;;;4919310;29;20052;-72
2022/05/14 08:17:54;;;;;;;10.77;3.60;;;24.90;72.10;;;;;;4920512;29;20051;-73
2022/05/14 08:20:20;;;;;;;10.63;4.05;;;24.70;71.80;;;;;;4934995;29;20070;-72
2022/05/14 08:25:30;;;;;;;12.45;4.25;;;24.90;70.90;;;;;;4934554;29;20043;-73
2022/05/14 08:27:56;;;;;;;11.90;3.63;;;24.80;71.70;;;;;;4938356;29;20047;-73
2022/05/14 08:30:28;;;;;;;13.00;4.13;;;24.70;72.00;;;;;;4952461;28;20047;-73
2022/05/14 08:32:54;;;;;;;10.35;3.47;;;25.20;72.50;;;;;;4919672;29;20055;-72
2022/05/14 08:35:20;;;;;;;13.38;4.38;;;24.90;71.70;;;;;;4906758;29;20055;-71
2022/05/14 08:37:46;;;;;;;9.60;3.75;;;25.10;72.10;;;;;;4892695;29;20057;-72
2022/05/14 08:40:19;;;;;;;11.95;3.50;;;25.00;72.20;;;;;;4917736;28;20040;-72
2022/05/14 08:42:47;;;;;;;9.90;3.95;;;25.00;70.60;;;;;;4887865;29;20079;-73
2022/05/14 08:45:15;;;;;;;11.10;3.95;;;25.10;72.30;;;;;;4918663;29;20050;-71
2022/05/14 08:47:47;;;;;;;9.35;3.83;;;25.10;71.80;;;;;;4920081;29;20051;-72
2022/05/14 08:50:12;;;;;;;10.20;3.70;;;25.40;72.60;;;;;;4920390;29;20054;-73
2022/05/14 08:52:38;;;;;;;13.25;3.60;;;25.30;72.50;;;;;;4889561;29;20486;-72
2022/05/14 08:55:07;;;;;;;14.27;3.97;;;25.10;75.10;;;;;;4952663;29;20058;-72
2022/05/14 08:57:45;;;;;;;10.57;3.47;;;25.00;72.20;;;;;;4938490;29;20102;-72
2022/05/14 09:00:11;;;;;;;9.18;3.03;;;25.10;70.80;;;;;;4922457;29;20465;-72
2022/05/14 09:02:42;;;;;;;11.45;3.97;;;26.10;72.20;;;;;;4949248;28;20434;-63
2022/05/14 09:05:09;;;;;;;10.13;3.47;;;24.90;72.20;;;;;;4903204;29;20060;-64
2022/05/14 09:07:36;;;;;;;11.10;3.67;;;25.20;72.20;;;;;;4923314;29;20055;-63
2022/05/14 09:10:06;;;;;;;9.05;3.40;;;25.10;71.70;;;;;;4926504;29;20130;-62
2022/05/14 09:12:33;;;;;;;12.82;4.20;;;25.30;72.20;;;;;;4926604;29;20055;-63
2022/05/14 09:15:18;;;;;;;8.57;3.22;;;24.90;72.00;;;;;;4906722;29;20056;-63
2022/05/14 09:17:43;;;;;;;9.80;3.53;;;25.00;70.50;;;;;;4923058;29;20449;-63
2022/05/14 09:20:09;;;;;;;8.40;3.25;;;24.90;71.90;;;;;;4923047;29;20052;-62
2022/05/14 09:22:54;;;;;;;8.50;3.50;;;25.30;71.90;;;;;;4922547;29;20047;-62
2022/05/14 09:25:28;;;;;;;10.20;3.13;;;25.00;70.60;;;;;;4912516;29;20055;-64
2022/05/14 09:28:22;;;;;;;10.63;3.50;;;25.10;71.50;;;;;;4922890;29;20450;-63
2022/05/14 09:30:55;;;;;;;7.82;2.88;;;25.10;72.40;;;;;;4892775;29;20400;-63
2022/05/14 09:33:27;;;;;;;10.60;3.10;;;25.10;72.60;;;;;;4906926;29;20079;-63
2022/05/14 09:36:02;;;;;;;12.70;3.60;;;25.00;70.90;;;;;;4908397;29;20406;-63
2022/05/14 09:38:28;;;;;;;8.77;3.20;;;24.80;72.10;;;;;;4922560;29;20496;-62
2022/05/14 09:40:55;;;;;;;7.63;3.17;;;24.90;72.30;;;;;;4906578;29;20052;-63
2022/05/14 09:43:26;;;;;;;11.30;4.00;;;24.80;72.40;;;;;;4940136;29;20058;-62
2022/05/14 09:46:00;;;;;;;8.77;3.17;;;24.80;72.60;;;;;;4908311;29;20055;-73
2022/05/14 09:48:31;;;;;;;10.30;3.47;;;24.60;71.00;;;;;;4922318;29;20063;-72
2022/05/14 09:50:59;;;;;;;10.55;3.47;;;24.80;72.60;;;;;;4922340;29;20050;-73
2022/05/14 09:53:27;;;;;;;8.68;2.97;;;24.90;72.60;;;;;;4890814;29;20055;-73
2022/05/14 09:55:59;;;;;;;12.23;3.97;;;24.50;72.50;;;;;;4892071;29;20054;-73
2022/05/14 09:58:33;;;;;;;10.07;3.60;;;24.60;71.20;;;;;;4941601;28;20099;-72
2022/05/14 10:01:03;;;;;;;8.10;3.20;;;24.80;71.40;;;;;;4923669;29;20501;-73
2022/05/14 10:03:44;;;;;;;9.52;3.42;;;24.80;72.70;;;;;;4940864;29;20055;-73
2022/05/14 10:06:46;;;;;;;7.80;2.83;;;25.00;72.90;;;;;;4893483;28;20401;-72
2022/05/14 10:09:11;;;;;;;9.45;3.05;;;24.80;71.40;;;;;;4908773;29;20048;-72
2022/05/14 10:11:44;;;;;;;9.32;3.08;;;24.60;72.10;;;;;;4905998;29;20075;-72
2022/05/14 10:14:25;;;;;;;9.10;3.10;;;24.70;72.80;;;;;;4938968;29;20054;-72
2022/05/14 10:17:06;;;;;;;9.88;3.30;;;24.50;71.10;;;;;;4934501;29;20039;-73
2022/05/14 10:20:06;;;;;;;9.65;3.22;;;24.90;71.30;;;;;;4939811;29;20051;-64
2022/05/14 10:28:17;;;;;;;9.20;2.97;;;24.60;72.50;;;;;;4913931;29;20055;-63
2022/05/14 10:30:58;;;;;;;21.23;3.55;;;24.70;71.20;;;;;;4926608;29;20513;-63
2022/05/14 10:33:26;;;;;;;13.63;3.67;;;24.60;73.00;;;;;;4900759;29;20516;-72
2022/05/14 10:36:09;;;;;;;16.80;3.80;;;24.70;72.60;;;;;;4909028;29;20050;-70
2022/05/14 10:38:44;;;;;;;11.40;3.22;;;24.60;71.30;;;;;;4937545;28;20054;-63
2022/05/14 10:41:11;;;;;;;13.02;3.28;;;24.70;71.20;;;;;;4902575;29;20051;-63
2022/05/14 10:43:57;;;;;;;10.50;3.22;;;24.70;72.50;;;;;;4921734;29;20048;-63
2022/05/14 10:46:24;;;;;;;13.38;3.38;;;24.80;73.20;;;;;;4921214;29;20059;-62
2022/05/14 10:48:57;;;;;;;10.73;3.20;;;24.70;72.50;;;;;;4905824;29;20410;-63
2022/05/14 10:51:31;;;;;;;11.43;3.25;;;24.60;71.10;;;;;;4894728;29;20048;-63
2022/05/14 10:54:00;;;;;;;9.40;3.70;;;24.70;71.40;;;;;;4920163;29;20059;-63
2022/05/14 10:56:33;;;;;;;9.48;3.30;;;24.90;72.80;;;;;;4900838;28;20046;-62
2022/05/14 10:59:09;;;;;;;11.40;3.35;;;24.50;75.60;;;;;;4959292;28;20054;-62
2022/05/14 11:01:54;;;;;;;10.18;3.10;;;24.70;73.10;;;;;;4924074;29;20055;-72
2022/05/14 11:04:36;;;;;;;11.35;3.33;;;24.90;71.70;;;;;;4891060;29;20055;-73
2022/05/14 11:07:06;;;;;;;10.30;3.45;;;24.70;71.60;;;;;;4940103;29;20043;-72
2022/05/14 11:09:38;;;;;;;7.93;2.80;;;25.00;71.50;;;;;;4926802;29;20454;-73
2022/05/14 11:12:06;;;;;;;7.18;2.88;;;24.70;71.50;;;;;;4930597;29;20046;-63
2022/05/14 11:14:44;;;;;;;9.00;3.25;;;25.00;72.70;;;;;;4937922;29;20058;-62
2022/05/14 11:17:26;;;;;;;7.35;3.20;;;24.80;73.30;;;;;;4955412;28;20035;-68
2022/05/14 11:20:05;;;;;;;9.00;2.90;;;24.70;71.70;;;;;;4955961;29;20441;-73
2022/05/14 11:22:42;;;;;;;7.40;3.15;;;24.70;73.00;;;;;;4942148;29;20044;-63
2022/05/14 11:25:17;;;;;;;10.80;3.33;;;24.80;71.70;;;;;;4905542;29;20051;-63
2022/05/14 11:27:57;;;;;;;9.50;3.15;;;24.70;73.10;;;;;;4956867;29;20047;-63
2022/05/14 11:30:40;;;;;;;8.88;2.88;;;25.00;71.70;;;;;;4909661;29;20420;-63
2022/05/14 11:33:27;;;;;;;8.70;2.80;;;24.80;72.00;;;;;;4933479;29;20062;-63
2022/05/14 11:35:57;;;;;;;8.60;2.70;;;24.50;73.20;;;;;;4933060;29;20052;-63
2022/05/14 11:38:23;;;;;;;8.00;2.85;;;24.80;73.40;;;;;;4928894;28;20452;-63
2022/05/14 11:41:00;;;;;;;7.60;2.95;;;24.90;72.60;;;;;;4965984;28;20047;-72
2022/05/14 11:43:28;;;;;;;8.32;3.53;;;24.70;73.70;;;;;;4917139;28;20413;-63
2022/05/14 11:46:36;;;;;;;6.85;2.65;;;24.80;73.50;;;;;;4957209;28;20043;-71
2022/05/14 11:49:31;;;;;;;9.85;2.95;;;24.70;72.20;;;;;;4914420;28;20060;-71
2022/05/14 11:52:24;;;;;;;8.90;3.15;;;24.60;72.10;;;;;;4923347;29;20059;-64
2022/05/14 11:55:16;;;;;;;10.68;3.08;;;24.50;72.20;;;;;;4894417;29;20490;-64
2022/05/14 11:57:48;;;;;;;11.63;3.05;;;24.60;72.10;;;;;;4904749;29;20048;-63
2022/05/14 12:00:16;;;;;;;10.57;3.22;;;24.90;73.20;;;;;;4947403;28;20081;-63
2022/05/14 12:02:57;;;;;;;11.10;3.58;;;24.70;73.30;;;;;;4922981;29;20061;-64
2022/05/14 12:05:25;;;;;;;12.38;3.38;;;24.80;71.90;;;;;;4903812;29;20051;-63
2022/05/14 12:08:04;;;;;;;10.82;3.20;;;24.70;73.00;;;;;;4904157;29;20055;-64
2022/05/14 12:11:07;;;;;;;9.88;3.50;;;24.50;71.60;;;;;;4904394;29;20059;-64
2022/05/14 12:13:56;;;;;;;10.38;3.10;;;24.70;71.80;;;;;;4919867;29;20409;-63
2022/05/14 12:16:30;;;;;;;8.98;3.17;;;24.80;71.60;;;;;;4904374;29;20047;-66
2022/05/14 12:18:56;;;;;;;10.95;3.25;;;24.60;73.00;;;;;;4919566;29;20058;-63
2022/05/14 12:21:21;;;;;;;13.02;3.60;;;24.90;72.50;;;;;;4936792;29;20478;-65
2022/05/14 12:23:48;;;;;;;11.38;3.17;;;24.60;72.30;;;;;;4936395;29;20043;-65
2022/05/14 12:26:30;;;;;;;10.10;3.55;;;24.60;72.10;;;;;;4888037;29;20131;-67
2022/05/14 12:29:20;;;;;;;10.27;3.17;;;24.80;73.10;;;;;;4924579;29;20067;-64
2022/05/14 12:34:36;;;;;;;10.10;3.60;;;24.60;71.50;;;;;;4919154;29;20059;-64
2022/05/14 12:37:02;;;;;;;11.80;3.63;;;24.80;72.90;;;;;;4936667;29;20047;-64
2022/05/14 12:39:29;;;;;;;8.52;3.15;;;24.70;72.60;;;;;;4903582;29;20043;-63
2022/05/14 12:42:03;;;;;;;8.77;2.90;;;24.80;72.80;;;;;;4934489;29;20502;-65
2022/05/14 12:44:35;;;;;;;11.25;3.63;;;25.10;71.50;;;;;;4919552;29;20040;-64
2022/05/14 12:47:03;;;;;;;11.75;3.03;;;24.80;71.20;;;;;;4919209;29;20051;-64
2022/05/14 12:49:41;;;;;;;10.63;3.50;;;24.80;72.60;;;;;;4916909;29;20051;-64
2022/05/14 12:52:21;;;;;;;8.65;3.22;;;24.80;73.00;;;;;;4919021;29;20493;-64
2022/05/14 12:54:58;;;;;;;11.77;3.22;;;24.60;75.70;;;;;;4936266;29;20051;-64
2022/05/14 12:57:23;;;;;;;11.20;3.17;;;24.80;73.00;;;;;;4903663;29;20052;-64
2022/05/14 12:59:49;;;;;;;9.52;2.85;;;25.00;72.60;;;;;;4936440;29;20370;-64
2022/05/14 13:02:33;;;;;;;11.25;3.03;;;24.80;72.50;;;;;;4938464;29;20053;-63
2022/05/14 13:05:23;;;;;;;10.80;3.20;;;24.90;71.60;;;;;;4922290;29;20055;-64
2022/05/14 13:08:19;;;;;;;12.90;3.53;;;24.60;73.10;;;;;;4919655;29;20055;-64
2022/05/14 13:10:53;;;;;;;9.65;3.35;;;24.80;71.50;;;;;;4924344;29;20532;-64
2022/05/14 13:13:27;;;;;;;9.48;3.38;;;24.60;71.50;;;;;;4938556;29;20047;-64
2022/05/14 13:15:53;;;;;;;8.23;2.95;;;24.90;73.20;;;;;;4955416;29;20122;-63
2022/05/14 13:18:22;;;;;;;8.10;3.10;;;24.60;72.70;;;;;;4938528;29;20182;-64
2022/05/14 13:21:18;;;;;;;8.85;3.08;;;24.60;71.50;;;;;;4953533;28;20047;-65
2022/05/14 13:24:00;;;;;;;11.45;3.60;;;24.50;71.40;;;;;;4921367;29;20051;-63